createdAt,value
2018-07-07T00:00:30.050Z,102.90
2018-07-07T00:01:30.149Z,101.10
2018-07-07T00:02:30.071Z,104.90
2018-07-07T00:03:30.095Z,101.40
2018-07-07T00:04:30.110Z,103.30
2018-07-07T00:05:30.123Z,104.70
2018-07-07T00:06:30.222Z,105.20
2018-07-07T00:07:30.147Z,102.90
2018-07-07T00:08:30.160Z,102.00
2018-07-07T00:09:30.154Z,101.60
2018-07-07T00:10:30.186Z,100.90
2018-07-07T00:11:30.329Z,99.50
2018-07-07T00:12:30.206Z,90.90
2018-07-07T00:13:30.217Z,92.80
2018-07-07T00:14:30.220Z,88.90
2018-07-07T00:15:30.239Z,88.80
2018-07-07T00:16:30.398Z,85.30
2018-07-07T00:17:30.268Z,84.70
2018-07-07T00:18:30.288Z,84.20
2018-07-07T00:19:30.282Z,81.40
2018-07-07T00:20:30.311Z,79.80
2018-07-07T00:21:30.476Z,81.70
2018-07-07T00:22:30.333Z,79.30
2018-07-07T00:23:30.349Z,79.20
2018-07-07T00:24:30.367Z,79.80
2018-07-07T00:25:30.359Z,82.40
2018-07-07T00:26:30.489Z,80.20
2018-07-07T00:27:30.405Z,81.80
2018-07-07T00:28:30.405Z,83.00
2018-07-07T00:29:30.414Z,82.80
2018-07-07T00:30:30.419Z,80.30
2018-07-07T00:31:30.647Z,81.30
2018-07-07T00:32:30.465Z,81.20
2018-07-07T00:33:30.457Z,80.30
2018-07-07T00:34:30.475Z,75.50
2018-07-07T00:35:30.507Z,74.30
2018-07-07T00:36:30.665Z,74.60
2018-07-07T00:37:30.544Z,73.10
2018-07-07T00:38:30.528Z,73.70
2018-07-07T00:39:30.556Z,74.50
2018-07-07T00:40:30.562Z,72.30
2018-07-07T00:41:30.665Z,70.00
2018-07-07T00:42:30.572Z,72.60
2018-07-07T00:43:30.612Z,71.00
2018-07-07T00:44:30.617Z,74.30
2018-07-07T00:45:30.643Z,78.30
2018-07-07T00:46:30.855Z,71.80
2018-07-07T00:47:30.660Z,73.00
2018-07-07T00:48:30.680Z,70.50
2018-07-07T00:49:30.692Z,69.20
2018-07-07T00:50:30.682Z,70.00
2018-07-07T00:51:30.839Z,71.00
2018-07-07T00:52:30.714Z,68.90
2018-07-07T00:53:30.740Z,68.10
2018-07-07T00:54:30.850Z,67.00
2018-07-07T00:55:30.763Z,62.40
2018-07-07T00:56:30.769Z,62.70
2018-07-07T00:57:30.833Z,65.10
2018-07-07T00:58:30.805Z,63.80
2018-07-07T00:59:30.814Z,65.20
2018-07-07T01:00:30.804Z,64.30
2018-07-07T01:01:31.017Z,65.00
2018-07-07T01:02:30.965Z,63.70
2018-07-07T01:03:30.865Z,62.90
2018-07-07T01:04:30.856Z,64.70
2018-07-07T01:05:30.880Z,65.60
2018-07-07T01:06:31.052Z,66.70
2018-07-07T01:07:30.909Z,67.00
2018-07-07T01:08:30.910Z,69.60
2018-07-07T01:09:30.994Z,67.70
2018-07-07T01:10:30.958Z,67.70
2018-07-07T01:11:31.097Z,68.20
2018-07-07T01:12:30.967Z,71.10
2018-07-07T01:13:31.000Z,69.90
2018-07-07T01:14:30.991Z,71.30
2018-07-07T01:15:31.000Z,69.40
2018-07-07T01:16:31.226Z,70.60
2018-07-07T01:17:31.051Z,72.30
2018-07-07T01:18:31.040Z,69.90
2018-07-07T01:19:31.051Z,68.50
2018-07-07T01:20:31.065Z,70.30
2018-07-07T01:21:31.243Z,70.60
2018-07-07T01:22:31.117Z,69.90
2018-07-07T01:23:31.128Z,67.60
2018-07-07T01:24:31.144Z,66.60
2018-07-07T01:25:31.161Z,69.40
2018-07-07T01:26:31.311Z,72.90
2018-07-07T01:27:31.180Z,72.70
2018-07-07T01:28:31.182Z,70.30
2018-07-07T01:29:31.206Z,65.80
2018-07-07T01:30:31.220Z,67.70
2018-07-07T01:31:31.370Z,72.40
2018-07-07T01:32:31.240Z,72.40
2018-07-07T01:33:31.243Z,77.30
2018-07-07T01:34:31.261Z,76.70
2018-07-07T01:35:31.278Z,70.80
2018-07-07T01:36:31.483Z,72.60
2018-07-07T01:37:31.304Z,74.40
2018-07-07T01:38:31.296Z,73.60
2018-07-07T01:39:31.333Z,77.10
2018-07-07T01:40:31.348Z,75.50
2018-07-07T01:41:31.351Z,74.90
2018-07-07T01:42:31.514Z,75.80
2018-07-07T01:43:31.363Z,78.60
2018-07-07T01:44:31.394Z,75.70
2018-07-07T01:45:31.410Z,76.20
2018-07-07T01:46:31.426Z,79.00
2018-07-07T01:47:31.581Z,80.00
2018-07-07T01:48:31.448Z,76.60
2018-07-07T01:49:31.465Z,76.20
2018-07-07T01:50:31.454Z,78.70
2018-07-07T01:51:31.491Z,75.90
2018-07-07T01:52:31.489Z,74.10
2018-07-07T01:53:31.663Z,74.70
2018-07-07T01:54:31.526Z,75.90
2018-07-07T01:55:31.537Z,78.10
2018-07-07T01:56:31.540Z,76.50
2018-07-07T01:57:31.559Z,76.80
2018-07-07T01:58:31.573Z,76.50
2018-07-07T01:59:31.684Z,72.60
2018-07-07T02:00:31.720Z,74.20
2018-07-07T02:01:31.598Z,73.70
2018-07-07T02:02:31.644Z,76.50
2018-07-07T02:03:31.652Z,76.40
2018-07-07T02:04:31.806Z,77.60
2018-07-07T02:05:31.678Z,80.30
2018-07-07T02:06:31.684Z,83.20
2018-07-07T02:07:31.700Z,81.00
2018-07-07T02:08:31.689Z,84.20
2018-07-07T02:09:31.711Z,82.90
2018-07-07T02:10:31.848Z,84.90
2018-07-07T02:11:31.735Z,86.90
2018-07-07T02:12:31.751Z,88.70
2018-07-07T02:13:31.779Z,90.30
2018-07-07T02:14:31.787Z,88.90
2018-07-07T02:15:31.999Z,89.40
2018-07-07T02:16:31.926Z,89.50
2018-07-07T02:17:31.805Z,91.50
2018-07-07T02:18:31.824Z,91.00
2018-07-07T02:19:31.850Z,93.30
2018-07-07T02:20:31.858Z,94.30
2018-07-07T02:21:31.933Z,93.20
2018-07-07T02:22:31.876Z,91.20
2018-07-07T02:23:31.888Z,92.10
2018-07-07T02:24:31.903Z,91.00
2018-07-07T02:25:31.929Z,89.60
2018-07-07T02:26:32.096Z,90.30
2018-07-07T02:27:31.959Z,90.30
2018-07-07T02:28:31.982Z,91.70
2018-07-07T02:29:31.964Z,93.40
2018-07-07T02:30:31.996Z,88.20
2018-07-07T02:31:32.098Z,92.60
2018-07-07T02:32:32.022Z,90.30
2018-07-07T02:33:32.033Z,91.50
2018-07-07T02:34:32.041Z,92.50
2018-07-07T02:35:32.050Z,94.40
2018-07-07T02:36:32.220Z,94.30
2018-07-07T02:37:32.082Z,94.00
2018-07-07T02:38:32.093Z,89.60
2018-07-07T02:39:32.105Z,86.00
2018-07-07T02:40:32.128Z,88.80
2018-07-07T02:41:32.179Z,87.40
2018-07-07T02:42:32.141Z,91.30
2018-07-07T02:43:32.166Z,90.60
2018-07-07T02:44:32.160Z,92.00
2018-07-07T02:45:32.381Z,91.80
2018-07-07T02:46:32.186Z,91.80
2018-07-07T02:47:32.217Z,94.80
2018-07-07T02:48:32.226Z,90.70
2018-07-07T02:49:32.247Z,88.10
2018-07-07T02:50:32.405Z,86.60
2018-07-07T02:51:32.277Z,91.30
2018-07-07T02:52:32.297Z,88.60
2018-07-07T02:53:32.283Z,88.60
2018-07-07T02:54:32.420Z,87.30
2018-07-07T02:55:32.473Z,84.00
2018-07-07T02:56:32.330Z,82.50
2018-07-07T02:57:32.339Z,80.60
2018-07-07T02:58:32.359Z,81.30
2018-07-07T02:59:32.366Z,82.70
2018-07-07T03:00:32.516Z,85.40
2018-07-07T03:01:32.387Z,89.60
2018-07-07T03:02:32.418Z,91.10
2018-07-07T03:03:32.413Z,85.10
2018-07-07T03:04:32.436Z,87.00
2018-07-07T03:05:32.593Z,88.70
2018-07-07T03:06:32.469Z,89.60
2018-07-07T03:07:32.467Z,89.60
2018-07-07T03:08:32.484Z,86.10
2018-07-07T03:09:32.513Z,86.10
2018-07-07T03:10:32.700Z,87.40
2018-07-07T03:11:32.526Z,90.50
2018-07-07T03:12:32.542Z,88.60
2018-07-07T03:13:32.544Z,84.80
2018-07-07T03:14:32.559Z,85.00
2018-07-07T03:15:32.571Z,82.00
2018-07-07T03:16:32.730Z,81.80
2018-07-07T03:17:32.588Z,82.60
2018-07-07T03:18:32.599Z,86.00
2018-07-07T03:19:32.746Z,84.80
2018-07-07T03:20:32.658Z,85.90
2018-07-07T03:21:32.772Z,87.50
2018-07-07T03:22:32.672Z,83.10
2018-07-07T03:23:32.664Z,85.90
2018-07-07T03:24:32.699Z,87.40
2018-07-07T03:25:32.700Z,87.70
2018-07-07T03:26:32.724Z,83.20
2018-07-07T03:27:32.821Z,83.60
2018-07-07T03:28:32.740Z,86.10
2018-07-07T03:29:32.757Z,85.10
2018-07-07T03:30:32.782Z,88.70
2018-07-07T03:31:32.787Z,86.80
2018-07-07T03:32:32.785Z,91.40
2018-07-07T03:33:32.961Z,91.80
2018-07-07T03:34:32.834Z,91.60
2018-07-07T03:35:32.830Z,88.10
2018-07-07T03:36:32.867Z,90.10
2018-07-07T03:37:32.867Z,88.10
2018-07-07T03:38:32.971Z,89.30
2018-07-07T03:39:32.892Z,88.80
2018-07-07T03:40:32.885Z,90.90
2018-07-07T03:41:32.924Z,91.20
2018-07-07T03:42:32.915Z,84.30
2018-07-07T03:43:33.047Z,83.40
2018-07-07T03:44:32.944Z,83.70
2018-07-07T03:45:32.955Z,81.40
2018-07-07T03:46:32.968Z,83.30
2018-07-07T03:47:33.000Z,82.70
2018-07-07T03:48:33.102Z,78.30
2018-07-07T03:49:33.034Z,81.40
2018-07-07T03:50:33.021Z,81.30
2018-07-07T03:51:33.049Z,79.20
2018-07-07T03:52:33.042Z,81.70
2018-07-07T03:53:33.152Z,75.00
2018-07-07T03:54:33.071Z,76.40
2018-07-07T03:55:33.102Z,77.50
2018-07-07T03:56:33.111Z,76.30
2018-07-07T03:57:33.134Z,78.50
2018-07-07T03:58:33.354Z,79.10
2018-07-07T03:59:33.160Z,76.00
2018-07-07T04:00:33.172Z,76.10
2018-07-07T04:01:33.158Z,76.50
2018-07-07T04:02:33.184Z,74.30
2018-07-07T04:03:33.400Z,75.30
2018-07-07T04:04:33.204Z,73.10
2018-07-07T04:05:33.229Z,74.40
2018-07-07T04:06:33.238Z,74.70
2018-07-07T04:07:33.262Z,75.20
2018-07-07T04:08:33.359Z,78.60
2018-07-07T04:09:33.275Z,75.60
2018-07-07T04:10:33.292Z,77.70
2018-07-07T04:11:33.299Z,76.70
2018-07-07T04:12:33.334Z,76.60
2018-07-07T04:13:33.430Z,78.70
2018-07-07T04:14:33.330Z,76.80
2018-07-07T04:15:33.366Z,74.90
2018-07-07T04:16:33.381Z,75.90
2018-07-07T04:17:33.366Z,76.20
2018-07-07T04:18:33.486Z,73.10
2018-07-07T04:19:33.417Z,75.50
2018-07-07T04:20:33.427Z,69.70
2018-07-07T04:21:33.421Z,69.80
2018-07-07T04:22:33.444Z,72.20
2018-07-07T04:23:33.467Z,72.80
2018-07-07T04:24:33.676Z,72.70
2018-07-07T04:25:33.494Z,72.20
2018-07-07T04:26:33.509Z,74.20
2018-07-07T04:27:33.523Z,72.20
2018-07-07T04:28:33.532Z,71.50
2018-07-07T04:29:33.705Z,71.80
2018-07-07T04:30:33.608Z,72.60
2018-07-07T04:31:33.566Z,70.10
2018-07-07T04:32:33.589Z,72.10
2018-07-07T04:33:33.595Z,70.50
2018-07-07T04:34:33.605Z,72.40
2018-07-07T04:35:33.806Z,69.60
2018-07-07T04:36:33.614Z,71.90
2018-07-07T04:37:33.637Z,74.20
2018-07-07T04:38:33.650Z,75.50
2018-07-07T04:39:33.651Z,68.10
2018-07-07T04:40:33.864Z,69.40
2018-07-07T04:41:33.703Z,69.80
2018-07-07T04:42:33.717Z,69.10
2018-07-07T04:43:33.715Z,69.00
2018-07-07T04:44:33.742Z,68.40
2018-07-07T04:45:33.754Z,68.20
2018-07-07T04:46:33.895Z,68.10
2018-07-07T04:47:33.767Z,65.30
2018-07-07T04:48:33.792Z,66.00
2018-07-07T04:49:33.802Z,68.00
2018-07-07T04:50:33.805Z,69.80
2018-07-07T04:51:33.872Z,70.40
2018-07-07T04:52:33.971Z,71.00
2018-07-07T04:53:33.836Z,73.60
2018-07-07T04:54:33.869Z,74.90
2018-07-07T04:55:33.869Z,71.40
2018-07-07T04:56:33.889Z,72.10
2018-07-07T04:57:34.095Z,70.80
2018-07-07T04:58:33.900Z,69.90
2018-07-07T04:59:33.921Z,71.80
2018-07-07T05:00:33.926Z,67.30
2018-07-07T05:01:33.938Z,69.30
2018-07-07T05:02:34.018Z,69.30
2018-07-07T05:03:33.989Z,69.20
2018-07-07T05:04:34.062Z,69.80
2018-07-07T05:05:34.190Z,72.60
2018-07-07T05:06:33.998Z,73.70
2018-07-07T05:07:34.026Z,72.30
2018-07-07T05:08:34.027Z,71.10
2018-07-07T05:09:34.056Z,75.50
2018-07-07T05:10:34.117Z,70.20
2018-07-07T05:11:34.067Z,73.80
2018-07-07T05:12:34.187Z,70.90
2018-07-07T05:13:34.091Z,72.70
2018-07-07T05:14:34.102Z,70.70
2018-07-07T05:15:34.174Z,70.10
2018-07-07T05:16:34.146Z,71.00
2018-07-07T05:17:34.202Z,67.60
2018-07-07T05:18:34.319Z,70.40
2018-07-07T05:19:34.176Z,73.70
2018-07-07T05:20:34.200Z,73.90
2018-07-07T05:21:34.218Z,73.70
2018-07-07T05:22:34.229Z,69.90
2018-07-07T05:23:34.446Z,74.30
2018-07-07T05:24:34.237Z,75.70
2018-07-07T05:25:34.264Z,75.70
2018-07-07T05:26:34.259Z,80.90
2018-07-07T05:27:34.278Z,76.40
2018-07-07T05:28:34.444Z,74.40
2018-07-07T05:29:34.306Z,69.40
2018-07-07T05:30:34.332Z,69.80
2018-07-07T05:31:34.322Z,75.40
2018-07-07T05:32:34.358Z,76.80
2018-07-07T05:33:34.442Z,77.70
2018-07-07T05:34:34.389Z,78.50
2018-07-07T05:35:34.391Z,77.40
2018-07-07T05:36:34.399Z,74.00
2018-07-07T05:37:34.422Z,79.50
2018-07-07T05:38:34.611Z,79.50
2018-07-07T05:39:34.442Z,80.40
2018-07-07T05:40:34.469Z,77.60
2018-07-07T05:41:34.472Z,80.20
2018-07-07T05:42:34.479Z,79.90
2018-07-07T05:43:34.589Z,77.10
2018-07-07T05:44:34.497Z,79.40
2018-07-07T05:45:34.500Z,77.60
2018-07-07T05:46:34.507Z,76.80
2018-07-07T05:47:34.538Z,78.10
2018-07-07T05:48:34.762Z,80.00
2018-07-07T05:49:34.556Z,78.50
2018-07-07T05:50:34.570Z,76.50
2018-07-07T05:51:34.592Z,81.30
2018-07-07T05:52:34.606Z,80.00
2018-07-07T05:53:34.819Z,80.50
2018-07-07T05:54:34.630Z,82.60
2018-07-07T05:55:34.639Z,84.00
2018-07-07T05:56:34.648Z,83.60
2018-07-07T05:57:34.661Z,85.20
2018-07-07T05:58:34.839Z,85.20
2018-07-07T05:59:34.673Z,86.40
2018-07-07T06:00:34.699Z,84.60
2018-07-07T06:01:34.711Z,82.60
2018-07-07T06:02:34.733Z,83.70
2018-07-07T06:03:34.736Z,82.30
2018-07-07T06:04:34.853Z,88.20
2018-07-07T06:05:34.755Z,85.70
2018-07-07T06:06:34.777Z,83.90
2018-07-07T06:07:34.784Z,82.70
2018-07-07T06:08:34.807Z,83.90
2018-07-07T06:09:34.815Z,85.10
2018-07-07T06:10:35.025Z,84.40
2018-07-07T06:11:34.853Z,83.40
2018-07-07T06:12:34.873Z,82.10
2018-07-07T06:13:34.874Z,82.60
2018-07-07T06:14:34.864Z,82.00
2018-07-07T06:15:35.083Z,82.80
2018-07-07T06:16:34.890Z,82.00
2018-07-07T06:17:34.917Z,84.70
2018-07-07T06:18:34.930Z,81.50
2018-07-07T06:19:34.949Z,82.20
2018-07-07T06:20:34.945Z,80.10
2018-07-07T06:21:35.056Z,82.10
2018-07-07T06:22:34.987Z,81.00
2018-07-07T06:23:34.995Z,80.90
2018-07-07T06:24:35.007Z,82.10
2018-07-07T06:25:35.016Z,81.10
2018-07-07T06:26:35.322Z,81.70
2018-07-07T06:27:35.033Z,78.70
2018-07-07T06:28:35.066Z,83.00
2018-07-07T06:29:35.090Z,83.50
2018-07-07T06:30:35.075Z,84.20
2018-07-07T06:31:35.252Z,87.10
2018-07-07T06:32:35.231Z,85.20
2018-07-07T06:33:35.114Z,85.50
2018-07-07T06:34:35.134Z,85.30
2018-07-07T06:35:35.147Z,87.00
2018-07-07T06:36:35.199Z,83.30
2018-07-07T06:37:35.191Z,87.00
2018-07-07T06:38:35.249Z,86.20
2018-07-07T06:39:35.197Z,84.80
2018-07-07T06:40:35.214Z,85.10
2018-07-07T06:41:35.425Z,86.30
2018-07-07T06:42:35.237Z,86.60
2018-07-07T06:43:35.299Z,83.80
2018-07-07T06:44:35.254Z,87.90
2018-07-07T06:45:35.294Z,88.50
2018-07-07T06:46:35.431Z,88.00
2018-07-07T06:47:35.308Z,90.10
2018-07-07T06:48:35.307Z,89.90
2018-07-07T06:49:35.325Z,86.60
2018-07-07T06:50:35.345Z,89.20
2018-07-07T06:51:35.352Z,88.60
2018-07-07T06:52:35.502Z,88.20
2018-07-07T06:53:35.446Z,88.40
2018-07-07T06:54:35.382Z,88.60
2018-07-07T06:55:35.408Z,91.70
2018-07-07T06:56:35.406Z,88.00
2018-07-07T06:57:35.579Z,89.50
2018-07-07T06:58:35.451Z,88.90
2018-07-07T06:59:35.492Z,88.50
2018-07-07T07:00:35.465Z,91.20
2018-07-07T07:01:35.466Z,91.70
2018-07-07T07:02:35.638Z,92.90
2018-07-07T07:03:35.508Z,90.40
2018-07-07T07:04:35.513Z,91.70
2018-07-07T07:05:35.519Z,93.40
2018-07-07T07:06:35.645Z,92.70
2018-07-07T07:07:35.701Z,91.20
2018-07-07T07:08:35.583Z,94.70
2018-07-07T07:09:35.587Z,96.50
2018-07-07T07:10:35.601Z,94.60
2018-07-07T07:11:35.614Z,99.30
2018-07-07T07:12:35.629Z,99.60
2018-07-07T07:13:35.718Z,100.00
2018-07-07T07:14:35.646Z,97.40
2018-07-07T07:15:35.655Z,103.00
2018-07-07T07:16:35.669Z,101.10
2018-07-07T07:17:35.677Z,105.00
2018-07-07T07:18:35.694Z,101.80
2018-07-07T07:19:35.751Z,101.90
2018-07-07T07:20:35.718Z,102.80
2018-07-07T07:21:35.729Z,105.30
2018-07-07T07:22:35.929Z,103.40
2018-07-07T07:23:35.741Z,108.20
2018-07-07T07:24:35.770Z,107.40
2018-07-07T07:25:35.798Z,107.50
2018-07-07T07:26:35.829Z,105.90
2018-07-07T07:27:35.888Z,104.90
2018-07-07T07:28:35.822Z,108.70
2018-07-07T07:29:35.821Z,108.00
2018-07-07T07:30:35.839Z,107.80
2018-07-07T07:31:35.840Z,106.20
2018-07-07T07:32:36.008Z,110.30
2018-07-07T07:33:35.859Z,110.90
2018-07-07T07:34:35.875Z,112.10
2018-07-07T07:35:35.899Z,109.50
2018-07-07T07:36:35.901Z,111.30
2018-07-07T07:37:36.039Z,111.80
2018-07-07T07:38:35.938Z,112.70
2018-07-07T07:39:35.938Z,115.60
2018-07-07T07:40:35.970Z,112.50
2018-07-07T07:41:35.982Z,111.80
2018-07-07T07:42:36.131Z,114.60
2018-07-07T07:43:35.987Z,111.30
2018-07-07T07:44:36.014Z,110.00
2018-07-07T07:45:36.023Z,109.80
2018-07-07T07:46:36.038Z,111.20
2018-07-07T07:47:36.237Z,109.80
2018-07-07T07:48:36.065Z,115.00
2018-07-07T07:49:36.056Z,116.50
2018-07-07T07:50:36.068Z,115.40
2018-07-07T07:51:36.081Z,116.20
2018-07-07T07:52:36.207Z,120.10
2018-07-07T07:53:36.119Z,116.20
2018-07-07T07:54:36.124Z,119.00
2018-07-07T07:55:36.178Z,118.90
2018-07-07T07:56:36.157Z,122.80
2018-07-07T07:57:36.275Z,124.70
2018-07-07T07:58:36.179Z,123.80
2018-07-07T07:59:36.193Z,120.10
2018-07-07T08:00:36.213Z,119.80
2018-07-07T08:01:36.206Z,122.60
2018-07-07T08:02:36.357Z,120.30
2018-07-07T08:03:36.245Z,122.60
2018-07-07T08:04:36.235Z,125.50
2018-07-07T08:05:36.266Z,127.10
2018-07-07T08:06:36.263Z,134.50
2018-07-07T08:07:36.382Z,134.40
2018-07-07T08:08:36.286Z,132.60
2018-07-07T08:09:36.302Z,135.90
2018-07-07T08:10:36.326Z,140.60
2018-07-07T08:11:36.482Z,138.80
2018-07-07T08:12:36.347Z,139.30
2018-07-07T08:13:36.361Z,135.40
2018-07-07T08:14:36.380Z,133.90
2018-07-07T08:15:36.390Z,131.10
2018-07-07T08:16:36.508Z,130.50
2018-07-07T08:17:36.396Z,132.40
2018-07-07T08:18:36.396Z,135.30
2018-07-07T08:19:36.421Z,133.30
2018-07-07T08:20:36.431Z,132.70
2018-07-07T08:21:36.536Z,135.60
2018-07-07T08:22:36.496Z,133.10
2018-07-07T08:23:36.462Z,137.10
2018-07-07T08:24:36.481Z,129.40
2018-07-07T08:25:36.481Z,132.50
2018-07-07T08:26:36.609Z,131.70
2018-07-07T08:27:36.520Z,131.40
2018-07-07T08:28:36.512Z,131.90
2018-07-07T08:29:36.590Z,132.50
2018-07-07T08:30:36.563Z,132.60
2018-07-07T08:31:36.674Z,135.60
2018-07-07T08:32:36.572Z,134.00
2018-07-07T08:33:36.577Z,134.50
2018-07-07T08:34:36.599Z,136.60
2018-07-07T08:35:36.594Z,136.30
2018-07-07T08:36:36.677Z,138.30
2018-07-07T08:37:36.739Z,137.40
2018-07-07T08:38:36.651Z,134.20
2018-07-07T08:39:36.662Z,137.60
2018-07-07T08:40:36.652Z,138.90
2018-07-07T08:41:36.679Z,136.10
2018-07-07T08:42:36.800Z,140.60
2018-07-07T08:43:36.693Z,135.40
2018-07-07T08:44:36.759Z,136.60
2018-07-07T08:45:36.728Z,141.20
2018-07-07T08:46:36.745Z,142.40
2018-07-07T08:47:36.855Z,140.50
2018-07-07T08:48:36.771Z,132.90
2018-07-07T08:49:36.811Z,135.50
2018-07-07T08:50:36.789Z,133.80
2018-07-07T08:51:36.794Z,130.20
2018-07-07T08:52:36.914Z,128.70
2018-07-07T08:53:36.811Z,128.00
2018-07-07T08:54:36.816Z,128.90
2018-07-07T08:55:36.843Z,124.50
2018-07-07T08:56:36.852Z,130.20
2018-07-07T08:57:36.963Z,124.20
2018-07-07T08:58:36.887Z,125.80
2018-07-07T08:59:36.896Z,124.80
2018-07-07T09:00:36.912Z,126.00
2018-07-07T09:01:36.950Z,125.80
2018-07-07T09:02:37.022Z,122.60
2018-07-07T09:03:36.941Z,123.00
2018-07-07T09:04:36.941Z,126.20
2018-07-07T09:05:36.959Z,123.20
2018-07-07T09:06:36.971Z,124.30
2018-07-07T09:07:37.094Z,124.70
2018-07-07T09:08:36.987Z,123.90
2018-07-07T09:09:37.018Z,125.00
2018-07-07T09:10:37.025Z,122.30
2018-07-07T09:11:37.017Z,122.50
2018-07-07T09:12:37.098Z,122.00
2018-07-07T09:13:37.049Z,120.70
2018-07-07T09:14:37.258Z,120.80
2018-07-07T09:15:37.079Z,124.40
2018-07-07T09:16:37.079Z,125.80
2018-07-07T09:17:37.096Z,123.80
2018-07-07T09:18:37.100Z,123.30
2018-07-07T09:19:37.218Z,120.10
2018-07-07T09:20:37.134Z,121.40
2018-07-07T09:21:37.131Z,123.50
2018-07-07T09:22:37.193Z,125.30
2018-07-07T09:23:37.175Z,121.60
2018-07-07T09:24:37.321Z,120.00
2018-07-07T09:25:37.188Z,117.10
2018-07-07T09:26:37.185Z,119.50
2018-07-07T09:27:37.336Z,122.90
2018-07-07T09:28:37.232Z,122.10
2018-07-07T09:29:37.341Z,119.90
2018-07-07T09:30:37.236Z,116.70
2018-07-07T09:31:37.265Z,112.30
2018-07-07T09:32:37.267Z,114.30
2018-07-07T09:33:37.288Z,118.50
2018-07-07T09:34:37.388Z,117.40
2018-07-07T09:35:37.292Z,117.70
2018-07-07T09:36:37.313Z,119.50
2018-07-07T09:37:37.327Z,123.20
2018-07-07T09:38:37.341Z,122.30
2018-07-07T09:39:37.453Z,117.90
2018-07-07T09:40:37.353Z,118.50
2018-07-07T09:41:37.425Z,112.90
2018-07-07T09:42:37.379Z,115.50
2018-07-07T09:43:37.397Z,114.80
2018-07-07T09:44:37.521Z,113.80
2018-07-07T09:45:37.417Z,112.10
2018-07-07T09:46:37.438Z,113.20
2018-07-07T09:47:37.440Z,110.70
2018-07-07T09:48:37.467Z,110.20
2018-07-07T09:49:37.479Z,111.10
2018-07-07T09:50:37.584Z,111.90
2018-07-07T09:51:37.497Z,111.40
2018-07-07T09:52:37.524Z,106.50
2018-07-07T09:53:37.525Z,109.80
2018-07-07T09:54:37.515Z,107.50
2018-07-07T09:55:37.640Z,106.90
2018-07-07T09:56:37.539Z,106.70
2018-07-07T09:57:37.570Z,112.70
2018-07-07T09:58:37.561Z,108.40
2018-07-07T09:59:37.568Z,113.00
2018-07-07T10:00:37.684Z,113.20
2018-07-07T10:01:37.612Z,112.80
2018-07-07T10:02:37.607Z,111.50
2018-07-07T10:03:37.636Z,111.50
2018-07-07T10:04:37.644Z,109.30
2018-07-07T10:05:37.646Z,109.50
2018-07-07T10:06:37.804Z,107.00
2018-07-07T10:07:37.701Z,102.40
2018-07-07T10:08:37.733Z,98.50
2018-07-07T10:09:37.704Z,103.70
2018-07-07T10:10:37.716Z,106.50
2018-07-07T10:11:37.719Z,100.20
2018-07-07T10:12:37.788Z,100.40
2018-07-07T10:13:37.745Z,94.70
2018-07-07T10:14:37.841Z,99.10
2018-07-07T10:15:37.781Z,95.90
2018-07-07T10:16:37.827Z,95.10
2018-07-07T10:17:37.805Z,94.50
2018-07-07T10:18:37.805Z,89.80
2018-07-07T10:19:37.820Z,87.70
2018-07-07T10:20:37.979Z,87.80
2018-07-07T10:21:37.837Z,90.40
2018-07-07T10:22:37.856Z,86.70
2018-07-07T10:23:37.872Z,87.50
2018-07-07T10:24:37.882Z,89.20
2018-07-07T10:25:37.886Z,84.90
2018-07-07T10:26:37.995Z,85.20
2018-07-07T10:27:37.927Z,85.50
2018-07-07T10:28:37.926Z,83.30
2018-07-07T10:29:37.945Z,81.50
2018-07-07T10:30:37.945Z,82.30
2018-07-07T10:31:38.024Z,80.90
2018-07-07T10:32:38.083Z,81.90
2018-07-07T10:33:37.991Z,77.10
2018-07-07T10:34:37.996Z,75.20
2018-07-07T10:35:38.004Z,73.60
2018-07-07T10:36:38.029Z,73.60
2018-07-07T10:37:38.151Z,72.00
2018-07-07T10:38:38.062Z,73.10
2018-07-07T10:39:38.062Z,71.10
2018-07-07T10:40:38.087Z,69.90
2018-07-07T10:41:38.086Z,66.00
2018-07-07T10:42:38.243Z,66.70
2018-07-07T10:43:38.127Z,63.50
2018-07-07T10:44:38.116Z,65.00
2018-07-07T10:45:38.209Z,65.80
2018-07-07T10:46:38.155Z,65.00
2018-07-07T10:47:38.276Z,62.30
2018-07-07T10:48:38.183Z,61.60
2018-07-07T10:49:38.210Z,60.70
2018-07-07T10:50:38.208Z,58.50
2018-07-07T10:51:38.245Z,57.50
2018-07-07T10:52:38.359Z,58.50
2018-07-07T10:53:38.249Z,56.40
2018-07-07T10:54:38.279Z,58.30
2018-07-07T10:55:38.352Z,59.70
2018-07-07T10:56:38.290Z,57.60
2018-07-07T10:57:38.409Z,57.70
2018-07-07T10:58:38.335Z,53.90
2018-07-07T10:59:38.342Z,54.10
2018-07-07T11:00:38.346Z,56.00
2018-07-07T11:01:38.378Z,58.00
2018-07-07T11:02:38.489Z,57.70
2018-07-07T11:03:38.448Z,58.00
2018-07-07T11:04:38.427Z,59.20
2018-07-07T11:05:38.434Z,58.00
2018-07-07T11:06:38.462Z,55.80
2018-07-07T11:07:38.459Z,53.40
2018-07-07T11:08:38.629Z,54.30
2018-07-07T11:09:38.519Z,54.10
2018-07-07T11:10:38.515Z,52.70
2018-07-07T11:11:38.588Z,53.00
2018-07-07T11:12:38.557Z,50.60
2018-07-07T11:13:38.672Z,50.50
2018-07-07T11:14:38.581Z,51.90
2018-07-07T11:15:38.597Z,55.10
2018-07-07T11:16:38.618Z,53.40
2018-07-07T11:17:38.619Z,53.70
2018-07-07T11:18:38.758Z,54.20
2018-07-07T11:19:38.711Z,51.90
2018-07-07T11:20:38.696Z,51.40
2018-07-07T11:21:38.705Z,51.00
2018-07-07T11:22:38.702Z,54.50
2018-07-07T11:23:38.841Z,54.60
2018-07-07T11:24:38.754Z,57.10
2018-07-07T11:25:38.756Z,59.20
2018-07-07T11:26:38.787Z,62.80
2018-07-07T11:27:38.801Z,60.30
2018-07-07T11:28:38.910Z,59.10
2018-07-07T11:29:38.848Z,57.40
2018-07-07T11:30:38.867Z,56.00
2018-07-07T11:31:38.872Z,55.90
2018-07-07T11:32:38.903Z,57.10
2018-07-07T11:33:39.049Z,58.40
2018-07-07T11:34:38.922Z,57.40
2018-07-07T11:35:38.955Z,59.40
2018-07-07T11:36:39.338Z,62.20
2018-07-07T11:37:38.969Z,60.90
2018-07-07T11:38:39.109Z,61.30
2018-07-07T11:39:39.024Z,57.70
2018-07-07T11:40:39.037Z,57.10
2018-07-07T11:41:39.072Z,57.90
2018-07-07T11:42:39.065Z,57.60
2018-07-07T11:43:39.180Z,59.50
2018-07-07T11:44:39.114Z,56.90
2018-07-07T11:45:39.131Z,55.10
2018-07-07T11:46:39.140Z,56.40
2018-07-07T11:47:39.148Z,56.20
2018-07-07T11:48:39.278Z,55.70
2018-07-07T11:49:39.173Z,58.50
2018-07-07T11:50:39.215Z,56.80
2018-07-07T11:51:39.308Z,58.20
2018-07-07T11:52:39.253Z,57.10
2018-07-07T11:53:39.405Z,56.90
2018-07-07T11:54:39.276Z,55.40
2018-07-07T11:55:39.300Z,57.50
2018-07-07T11:56:39.306Z,57.90
2018-07-07T11:57:39.337Z,59.10
2018-07-07T11:58:39.334Z,56.20
2018-07-07T11:59:39.466Z,55.10
2018-07-07T12:00:39.389Z,57.10
2018-07-07T12:01:39.433Z,56.00
2018-07-07T12:02:39.429Z,55.40
2018-07-07T12:03:39.441Z,54.00
2018-07-07T12:04:39.696Z,54.80
2018-07-07T12:05:39.521Z,54.30
2018-07-07T12:06:39.493Z,54.00
2018-07-07T12:07:39.502Z,56.10
2018-07-07T12:08:39.529Z,57.40
2018-07-07T12:09:39.655Z,58.30
2018-07-07T12:10:39.580Z,57.80
2018-07-07T12:11:39.649Z,59.80
2018-07-07T12:12:39.618Z,59.80
2018-07-07T12:13:39.616Z,60.20
2018-07-07T12:14:39.733Z,61.30
2018-07-07T12:15:39.669Z,59.70
2018-07-07T12:16:39.681Z,61.00
2018-07-07T12:17:39.707Z,58.60
2018-07-07T12:18:39.728Z,59.30
2018-07-07T12:19:39.740Z,58.90
2018-07-07T12:20:39.854Z,60.90
2018-07-07T12:21:39.768Z,60.50
2018-07-07T12:22:39.787Z,59.40
2018-07-07T12:23:39.805Z,58.20
2018-07-07T12:24:39.850Z,57.40
2018-07-07T12:25:39.871Z,58.60
2018-07-07T12:26:39.978Z,57.30
2018-07-07T12:27:39.891Z,59.70
2018-07-07T12:28:39.897Z,59.70
2018-07-07T12:29:39.926Z,60.80
2018-07-07T12:30:39.949Z,63.40
2018-07-07T12:31:40.055Z,60.70
2018-07-07T12:32:39.973Z,62.10
2018-07-07T12:33:40.008Z,61.80
2018-07-07T12:34:40.043Z,63.00
2018-07-07T12:35:40.059Z,60.90
2018-07-07T12:36:40.138Z,62.80
2018-07-07T12:37:40.095Z,55.60
2018-07-07T12:38:40.109Z,52.90
2018-07-07T12:39:40.215Z,52.10
2018-07-07T12:40:40.178Z,54.80
2018-07-07T12:41:40.205Z,55.90
2018-07-07T12:42:40.199Z,54.20
2018-07-07T12:43:40.264Z,57.00
2018-07-07T12:44:40.375Z,58.10
2018-07-07T12:45:40.243Z,59.70
2018-07-07T12:46:40.262Z,59.10